sensor_id;sensor_type;location;lat;lon;timestamp;pressure;altitude;pressure_sealevel;temperature;humidity
2268;BME280;11052;43.338;25.502;2022-09-27T00:00:59;99560.97;;;17.78;100.00
2268;BME280;11052;43.338;25.502;2022-09-27T00:03:27;99552.47;;;17.74;100.00
2268;BME280;11052;43.338;25.502;2022-09-27T00:06:02;99546.94;;;17.53;100.00
2268;BME280;11052;43.338;25.502;2022-09-27T00:08:30;99548.91;;;17.62;100.00
2268;BME280;11052;43.338;25.502;2022-09-27T00:10:59;99557.22;;;17.69;100.00
2268;BME280;11052;43.338;25.502;2022-09-27T00:13:27;99557.22;;;17.69;100.00
2268;BME280;11052;43.338;25.502;2022-09-27T00:16:00;99552.19;;;17.66;100.00
2268;BME280;11052;43.338;25.502;2022-09-27T00:18:27;99549.56;;;17.66;100.00
2268;BME280;11052;43.338;25.502;2022-09-27T00:20:55;99545.22;;;17.65;100.00
2268;BME280;11052;43.338;25.502;2022-09-27T00:23:23;99547.13;;;17.63;100.00
2268;BME280;11052;43.338;25.502;2022-09-27T00:25:56;99542.84;;;17.62;100.00
2268;BME280;11052;43.338;25.502;2022-09-27T00:28:24;99548.06;;;17.62;100.00
2268;BME280;11052;43.338;25.502;2022-09-27T00:30:51;99547.00;;;17.64;100.00
2268;BME280;11052;43.338;25.502;2022-09-27T00:33:20;99542.72;;;17.63;100.00
2268;BME280;11052;43.338;25.502;2022-09-27T00:35:47;99534.03;;;17.63;100.00
2268;BME280;11052;43.338;25.502;2022-09-27T00:38:14;99532.28;;;17.51;100.00
2268;BME280;11052;43.338;25.502;2022-09-27T00:40:41;99534.16;;;17.49;100.00
2268;BME280;11052;43.338;25.502;2022-09-27T00:43:19;99536.78;;;17.49;100.00
2268;BME280;11052;43.338;25.502;2022-09-27T00:45:49;99534.88;;;17.51;100.00
2268;BME280;11052;43.338;25.502;2022-09-27T00:48:23;99541.28;;;17.47;100.00
2268;BME280;11052;43.338;25.502;2022-09-27T00:50:55;99542.03;;;17.49;100.00
2268;BME280;11052;43.338;25.502;2022-09-27T00:53:29;99528.19;;;17.47;100.00
2268;BME280;11052;43.338;25.502;2022-09-27T00:55:59;99534.28;;;17.47;100.00
2268;BME280;11052;43.338;25.502;2022-09-27T00:58:31;99525.34;;;17.50;100.00
2268;BME280;11052;43.338;25.502;2022-09-27T01:01:03;99523.06;;;17.45;100.00
2268;BME280;11052;43.338;25.502;2022-09-27T01:03:38;99527.34;;;17.46;100.00
2268;BME280;11052;43.338;25.502;2022-09-27T01:06:08;99524.63;;;17.48;100.00
2268;BME280;11052;43.338;25.502;2022-09-27T01:08:36;99523.78;;;17.47;100.00
2268;BME280;11052;43.338;25.502;2022-09-27T01:11:12;99523.69;;;17.49;100.00
2268;BME280;11052;43.338;25.502;2022-09-27T01:13:46;99528.09;;;17.48;100.00
2268;BME280;11052;43.338;25.502;2022-09-27T01:16:23;99528.91;;;17.49;100.00
2268;BME280;11052;43.338;25.502;2022-09-27T01:19:06;99524.13;;;17.43;100.00
2268;BME280;11052;43.338;25.502;2022-09-27T01:21:40;99537.31;;;17.41;100.00
2268;BME280;11052;43.338;25.502;2022-09-27T01:24:38;99542.03;;;17.36;100.00
2268;BME280;11052;43.338;25.502;2022-09-27T01:30:23;99544.56;;;17.37;100.00
2268;BME280;11052;43.338;25.502;2022-09-27T01:33:01;99548.59;;;17.30;100.00
2268;BME280;11052;43.338;25.502;2022-09-27T01:35:35;99546.69;;;17.32;100.00
2268;BME280;11052;43.338;25.502;2022-09-27T01:38:12;99541.31;;;17.34;100.00
2268;BME280;11052;43.338;25.502;2022-09-27T01:40:48;99552.53;;;17.36;100.00
2268;BME280;11052;43.338;25.502;2022-09-27T01:43:20;99535.47;;;17.30;100.00
2268;BME280;11052;43.338;25.502;2022-09-27T01:45:53;99545.22;;;17.28;100.00
2268;BME280;11052;43.338;25.502;2022-09-27T01:48:23;99542.72;;;17.27;100.00
2268;BME280;11052;43.338;25.502;2022-09-27T01:50:53;99541.66;;;17.29;100.00
2268;BME280;11052;43.338;25.502;2022-09-27T01:53:25;99552.03;;;17.31;100.00
2268;BME280;11052;43.338;25.502;2022-09-27T01:55:54;99554.66;;;17.31;100.00
2268;BME280;11052;43.338;25.502;2022-09-27T01:58:25;99543.94;;;17.34;100.00
2268;BME280;11052;43.338;25.502;2022-09-27T02:00:56;99536.91;;;17.34;100.00
2268;BME280;11052;43.338;25.502;2022-09-27T02:03:25;99536.97;;;17.22;100.00
2268;BME280;11052;43.338;25.502;2022-09-27T02:05:57;99532.34;;;17.25;100.00
2268;BME280;11052;43.338;25.502;2022-09-27T02:08:29;99523.97;;;17.20;100.00
2268;BME280;11052;43.338;25.502;2022-09-27T02:11:01;99521.78;;;17.14;100.00
2268;BME280;11052;43.338;25.502;2022-09-27T02:13:35;99518.44;;;17.12;100.00
2268;BME280;11052;43.338;25.502;2022-09-27T02:16:15;99525.75;;;17.07;100.00
2268;BME280;11052;43.338;25.502;2022-09-27T02:18:52;99515.91;;;17.11;100.00
2268;BME280;11052;43.338;25.502;2022-09-27T02:21:24;99510.78;;;17.09;100.00
2268;BME280;11052;43.338;25.502;2022-09-27T02:23:59;99511.50;;;17.11;100.00
2268;BME280;11052;43.338;25.502;2022-09-27T02:26:30;99507.31;;;17.09;100.00
2268;BME280;11052;43.338;25.502;2022-09-27T02:29:04;99518.75;;;17.08;100.00
2268;BME280;11052;43.338;25.502;2022-09-27T02:31:34;99500.53;;;17.06;100.00
2268;BME280;11052;43.338;25.502;2022-09-27T02:34:04;99506.50;;;17.08;100.00
2268;BME280;11052;43.338;25.502;2022-09-27T02:36:33;99502.50;;;17.02;100.00
2268;BME280;11052;43.338;25.502;2022-09-27T02:39:00;99502.41;;;17.04;100.00
2268;BME280;11052;43.338;25.502;2022-09-27T02:41:27;99502.94;;;16.96;100.00
2268;BME280;11052;43.338;25.502;2022-09-27T02:43:56;99505.13;;;16.90;100.00
2268;BME280;11052;43.338;25.502;2022-09-27T02:49:30;99515.63;;;16.90;100.00
2268;BME280;11052;43.338;25.502;2022-09-27T02:52:05;99509.53;;;16.89;100.00
2268;BME280;11052;43.338;25.502;2022-09-27T02:54:42;99507.75;;;16.90;100.00
2268;BME280;11052;43.338;25.502;2022-09-27T02:57:20;99503.16;;;16.93;100.00
2268;BME280;11052;43.338;25.502;2022-09-27T02:59:58;99504.31;;;16.89;100.00
2268;BME280;11052;43.338;25.502;2022-09-27T03:02:32;99500.00;;;16.88;100.00
2268;BME280;11052;43.338;25.502;2022-09-27T03:05:06;99499.06;;;16.89;100.00
2268;BME280;11052;43.338;25.502;2022-09-27T03:07:34;99497.28;;;16.90;100.00
2268;BME280;11052;43.338;25.502;2022-09-27T03:10:03;99498.97;;;16.91;100.00
2268;BME280;11052;43.338;25.502;2022-09-27T03:12:31;99493.94;;;16.88;100.00
2268;BME280;11052;43.338;25.502;2022-09-27T03:14:59;99487.75;;;16.89;100.00
2268;BME280;11052;43.338;25.502;2022-09-27T03:17:27;99497.81;;;16.82;100.00
2268;BME280;11052;43.338;25.502;2022-09-27T03:19:54;99505.03;;;16.79;100.00
2268;BME280;11052;43.338;25.502;2022-09-27T03:22:22;99500.63;;;16.79;100.00
2268;BME280;11052;43.338;25.502;2022-09-27T03:24:49;99509.84;;;16.85;100.00
2268;BME280;11052;43.338;25.502;2022-09-27T03:27:17;99505.66;;;16.95;100.00
2268;BME280;11052;43.338;25.502;2022-09-27T03:29:44;99499.38;;;16.85;100.00
2268;BME280;11052;43.338;25.502;2022-09-27T03:32:11;99493.19;;;16.86;100.00
2268;BME280;11052;43.338;25.502;2022-09-27T03:34:38;99482.41;;;16.90;100.00
2268;BME280;11052;43.338;25.502;2022-09-27T03:37:05;99472.78;;;16.91;100.00
2268;BME280;11052;43.338;25.502;2022-09-27T03:39:34;99465.03;;;16.89;100.00
2268;BME280;11052;43.338;25.502;2022-09-27T03:42:01;99466.72;;;16.90;100.00
2268;BME280;11052;43.338;25.502;2022-09-27T03:44:28;99481.38;;;16.93;100.00
2268;BME280;11052;43.338;25.502;2022-09-27T03:46:57;99482.09;;;16.95;100.00
2268;BME280;11052;43.338;25.502;2022-09-27T03:49:24;99480.44;;;16.94;100.00
2268;BME280;11052;43.338;25.502;2022-09-27T03:51:51;99483.25;;;16.91;100.00
2268;BME280;11052;43.338;25.502;2022-09-27T03:54:19;99476.97;;;16.93;100.00
2268;BME280;11052;43.338;25.502;2022-09-27T03:56:47;99476.03;;;16.94;100.00
2268;BME280;11052;43.338;25.502;2022-09-27T03:59:14;99478.63;;;16.94;100.00
2268;BME280;11052;43.338;25.502;2022-09-27T04:01:42;99487.22;;;16.96;100.00
2268;BME280;11052;43.338;25.502;2022-09-27T04:04:09;99475.91;;;16.96;100.00
2268;BME280;11052;43.338;25.502;2022-09-27T04:06:37;99479.59;;;16.93;100.00
2268;BME280;11052;43.338;25.502;2022-09-27T04:09:04;99474.88;;;16.86;100.00
2268;BME280;11052;43.338;25.502;2022-09-27T04:11:31;99476.03;;;16.82;100.00
2268;BME280;11052;43.338;25.502;2022-09-27T04:13:59;99470.69;;;16.83;100.00
2268;BME280;11052;43.338;25.502;2022-09-27T04:16:26;99462.63;;;16.86;100.00
2268;BME280;11052;43.338;25.502;2022-09-27T04:18:54;99442.53;;;16.87;100.00
2268;BME280;11052;43.338;25.502;2022-09-27T04:21:21;99425.66;;;16.78;100.00
2268;BME280;11052;43.338;25.502;2022-09-27T04:23:48;99420.75;;;16.74;100.00
2268;BME280;11052;43.338;25.502;2022-09-27T04:26:15;99406.72;;;16.75;100.00
2268;BME280;11052;43.338;25.502;2022-09-27T04:28:42;99398.03;;;16.74;100.00
2268;BME280;11052;43.338;25.502;2022-09-27T04:31:12;99408.09;;;16.80;100.00
2268;BME280;11052;43.338;25.502;2022-09-27T04:33:39;99413.00;;;16.85;100.00
2268;BME280;11052;43.338;25.502;2022-09-27T04:36:06;99413.41;;;16.79;100.00
2268;BME280;11052;43.338;25.502;2022-09-27T04:38:51;99404.94;;;16.75;100.00
2268;BME280;11052;43.338;25.502;2022-09-27T04:41:18;99391.97;;;16.74;100.00
2268;BME280;11052;43.338;25.502;2022-09-27T04:43:46;99389.25;;;16.75;100.00
2268;BME280;11052;43.338;25.502;2022-09-27T04:46:14;99389.13;;;16.77;100.00
2268;BME280;11052;43.338;25.502;2022-09-27T04:48:41;99380.13;;;16.81;100.00
2268;BME280;11052;43.338;25.502;2022-09-27T04:51:09;99378.53;;;16.91;100.00
2268;BME280;11052;43.338;25.502;2022-09-27T04:53:37;99379.78;;;16.98;100.00
2268;BME280;11052;43.338;25.502;2022-09-27T04:56:04;99366.91;;;16.95;100.00
2268;BME280;11052;43.338;25.502;2022-09-27T04:58:33;99371.13;;;16.85;100.00
2268;BME280;11052;43.338;25.502;2022-09-27T05:01:00;99382.00;;;16.79;100.00
2268;BME280;11052;43.338;25.502;2022-09-27T05:03:29;99385.25;;;16.82;100.00
2268;BME280;11052;43.338;25.502;2022-09-27T05:05:57;99388.72;;;16.83;100.00
2268;BME280;11052;43.338;25.502;2022-09-27T05:08:25;99392.06;;;16.72;100.00
2268;BME280;11052;43.338;25.502;2022-09-27T05:10:53;99398.66;;;16.78;100.00
2268;BME280;11052;43.338;25.502;2022-09-27T05:13:20;99403.47;;;16.84;100.00
2268;BME280;11052;43.338;25.502;2022-09-27T05:15:48;99402.41;;;16.86;100.00
2268;BME280;11052;43.338;25.502;2022-09-27T05:18:16;99402.19;;;16.89;100.00
2268;BME280;11052;43.338;25.502;2022-09-27T05:20:45;99396.66;;;16.81;100.00
2268;BME280;11052;43.338;25.502;2022-09-27T05:23:12;99390.69;;;16.79;100.00
2268;BME280;11052;43.338;25.502;2022-09-27T05:25:39;99396.56;;;16.83;100.00
2268;BME280;11052;43.338;25.502;2022-09-27T05:28:07;99394.88;;;16.82;100.00
2268;BME280;11052;43.338;25.502;2022-09-27T05:30:34;99396.44;;;16.84;100.00
2268;BME280;11052;43.338;25.502;2022-09-27T05:33:02;99389.31;;;16.86;100.00
2268;BME280;11052;43.338;25.502;2022-09-27T05:35:29;99385.84;;;16.98;100.00
2268;BME280;11052;43.338;25.502;2022-09-27T05:37:58;99382.16;;;17.01;100.00
2268;BME280;11052;43.338;25.502;2022-09-27T05:40:26;99377.44;;;17.06;100.00
2268;BME280;11052;43.338;25.502;2022-09-27T05:42:54;99369.53;;;17.19;100.00
2268;BME280;11052;43.338;25.502;2022-09-27T05:45:22;99368.78;;;17.29;100.00
2268;BME280;11052;43.338;25.502;2022-09-27T05:47:54;99359.38;;;17.38;100.00
2268;BME280;11052;43.338;25.502;2022-09-27T05:50:21;99363.28;;;17.56;100.00
2268;BME280;11052;43.338;25.502;2022-09-27T05:52:48;99357.19;;;17.80;100.00
2268;BME280;11052;43.338;25.502;2022-09-27T05:55:17;99360.53;;;17.82;100.00
2268;BME280;11052;43.338;25.502;2022-09-27T05:57:54;99349.22;;;17.81;100.00
2268;BME280;11052;43.338;25.502;2022-09-27T06:00:22;99351.03;;;17.92;100.00
2268;BME280;11052;43.338;25.502;2022-09-27T06:02:54;99357.25;;;18.02;100.00
2268;BME280;11052;43.338;25.502;2022-09-27T06:05:22;99357.84;;;18.06;100.00
2268;BME280;11052;43.338;25.502;2022-09-27T06:07:50;99352.84;;;18.14;100.00
2268;BME280;11052;43.338;25.502;2022-09-27T06:10:19;99355.38;;;18.15;100.00
2268;BME280;11052;43.338;25.502;2022-09-27T06:12:46;99364.88;;;18.27;100.00
2268;BME280;11052;43.338;25.502;2022-09-27T06:15:15;99364.91;;;18.39;100.00
2268;BME280;11052;43.338;25.502;2022-09-27T06:17:42;99367.16;;;18.43;100.00
2268;BME280;11052;43.338;25.502;2022-09-27T06:20:09;99364.94;;;18.61;100.00
2268;BME280;11052;43.338;25.502;2022-09-27T06:22:36;99369.94;;;18.75;100.00
2268;BME280;11052;43.338;25.502;2022-09-27T06:25:04;99372.34;;;18.78;100.00
2268;BME280;11052;43.338;25.502;2022-09-27T06:27:33;99364.34;;;18.69;100.00
2268;BME280;11052;43.338;25.502;2022-09-27T06:30:00;99354.19;;;18.86;100.00
2268;BME280;11052;43.338;25.502;2022-09-27T06:32:27;99362.28;;;18.94;100.00
2268;BME280;11052;43.338;25.502;2022-09-27T06:34:54;99351.38;;;19.10;100.00
2268;BME280;11052;43.338;25.502;2022-09-27T06:37:24;99349.81;;;19.51;100.00
2268;BME280;11052;43.338;25.502;2022-09-27T06:39:51;99360.81;;;19.97;100.00
2268;BME280;11052;43.338;25.502;2022-09-27T06:42:19;99364.91;;;20.32;100.00
2268;BME280;11052;43.338;25.502;2022-09-27T06:44:47;99365.91;;;20.61;100.00
2268;BME280;11052;43.338;25.502;2022-09-27T06:47:15;99366.25;;;20.78;100.00
2268;BME280;11052;43.338;25.502;2022-09-27T06:49:42;99372.16;;;20.70;100.00
2268;BME280;11052;43.338;25.502;2022-09-27T06:52:09;99364.22;;;20.60;100.00
2268;BME280;11052;43.338;25.502;2022-09-27T06:54:36;99366.38;;;20.46;100.00
2268;BME280;11052;43.338;25.502;2022-09-27T06:57:04;99372.13;;;20.60;100.00
2268;BME280;11052;43.338;25.502;2022-09-27T06:59:31;99371.34;;;20.70;100.00
2268;BME280;11052;43.338;25.502;2022-09-27T07:02:17;99364.97;;;20.82;100.00
2268;BME280;11052;43.338;25.502;2022-09-27T07:04:44;99364.31;;;20.80;100.00
2268;BME280;11052;43.338;25.502;2022-09-27T07:07:11;99360.19;;;20.56;100.00
2268;BME280;11052;43.338;25.502;2022-09-27T07:09:38;99356.59;;;20.37;100.00
2268;BME280;11052;43.338;25.502;2022-09-27T07:12:06;99357.47;;;20.16;100.00
2268;BME280;11052;43.338;25.502;2022-09-27T07:14:33;99346.63;;;20.10;100.00
2268;BME280;11052;43.338;25.502;2022-09-27T07:17:00;99346.00;;;19.96;100.00
2268;BME280;11052;43.338;25.502;2022-09-27T07:19:29;99337.34;;;19.85;100.00
2268;BME280;11052;43.338;25.502;2022-09-27T07:21:56;99335.94;;;19.81;100.00
2268;BME280;11052;43.338;25.502;2022-09-27T07:24:23;99342.34;;;19.67;100.00
2268;BME280;11052;43.338;25.502;2022-09-27T07:26:50;99329.59;;;19.62;100.00
2268;BME280;11052;43.338;25.502;2022-09-27T07:29:17;99336.91;;;19.59;100.00
2268;BME280;11052;43.338;25.502;2022-09-27T07:31:45;99333.88;;;19.63;100.00
2268;BME280;11052;43.338;25.502;2022-09-27T07:34:12;99322.03;;;19.69;100.00
2268;BME280;11052;43.338;25.502;2022-09-27T07:36:40;99323.03;;;19.57;100.00
2268;BME280;11052;43.338;25.502;2022-09-27T07:39:08;99317.53;;;19.49;100.00
2268;BME280;11052;43.338;25.502;2022-09-27T07:41:35;99319.53;;;19.68;100.00
2268;BME280;11052;43.338;25.502;2022-09-27T07:44:03;99322.03;;;19.69;100.00
2268;BME280;11052;43.338;25.502;2022-09-27T07:46:32;99324.28;;;19.74;100.00
2268;BME280;11052;43.338;25.502;2022-09-27T07:48:59;99320.81;;;19.73;100.00
2268;BME280;11052;43.338;25.502;2022-09-27T07:51:26;99320.03;;;19.82;100.00
2268;BME280;11052;43.338;25.502;2022-09-27T07:53:55;99329.13;;;19.99;100.00
2268;BME280;11052;43.338;25.502;2022-09-27T07:56:22;99334.19;;;20.12;100.00
2268;BME280;11052;43.338;25.502;2022-09-27T07:58:49;99340.91;;;20.25;100.00
2268;BME280;11052;43.338;25.502;2022-09-27T08:01:16;99343.53;;;20.46;100.00
2268;BME280;11052;43.338;25.502;2022-09-27T08:03:43;99358.25;;;20.58;100.00
2268;BME280;11052;43.338;25.502;2022-09-27T08:06:11;99368.00;;;20.68;100.00
2268;BME280;11052;43.338;25.502;2022-09-27T08:08:38;99363.97;;;20.64;100.00
2268;BME280;11052;43.338;25.502;2022-09-27T08:11:12;99369.53;;;20.70;100.00
2268;BME280;11052;43.338;25.502;2022-09-27T08:13:40;99369.97;;;20.75;100.00
2268;BME280;11052;43.338;25.502;2022-09-27T08:16:07;99374.97;;;20.78;100.00
2268;BME280;11052;43.338;25.502;2022-09-27T08:18:35;99386.09;;;20.91;100.00
2268;BME280;11052;43.338;25.502;2022-09-27T08:21:03;99381.22;;;20.87;100.00
2268;BME280;11052;43.338;25.502;2022-09-27T08:23:30;99369.16;;;20.94;100.00
2268;BME280;11052;43.338;25.502;2022-09-27T08:25:57;99379.56;;;20.95;100.00
2268;BME280;11052;43.338;25.502;2022-09-27T08:28:27;99370.56;;;20.98;100.00
2268;BME280;11052;43.338;25.502;2022-09-27T08:30:56;99371.28;;;21.10;100.00
2268;BME280;11052;43.338;25.502;2022-09-27T08:33:23;99360.16;;;20.97;100.00
2268;BME280;11052;43.338;25.502;2022-09-27T08:35:51;99350.63;;;21.05;100.00
2268;BME280;11052;43.338;25.502;2022-09-27T08:38:18;99346.88;;;21.08;100.00
2268;BME280;11052;43.338;25.502;2022-09-27T08:40:51;99342.88;;;21.13;100.00
2268;BME280;11052;43.338;25.502;2022-09-27T08:43:34;99339.94;;;21.16;100.00
2268;BME280;11052;43.338;25.502;2022-09-27T08:46:14;99327.88;;;21.14;100.00
2268;BME280;11052;43.338;25.502;2022-09-27T08:48:47;99313.25;;;20.81;100.00
2268;BME280;11052;43.338;25.502;2022-09-27T08:51:15;99326.72;;;20.87;100.00
2268;BME280;11052;43.338;25.502;2022-09-27T08:53:49;99337.97;;;20.99;100.00
2268;BME280;11052;43.338;25.502;2022-09-27T08:56:19;99345.78;;;21.10;100.00
2268;BME280;11052;43.338;25.502;2022-09-27T08:58:51;99345.91;;;21.18;100.00
2268;BME280;11052;43.338;25.502;2022-09-27T09:01:20;99332.38;;;21.33;100.00
2268;BME280;11052;43.338;25.502;2022-09-27T09:03:49;99329.59;;;21.53;100.00
2268;BME280;11052;43.338;25.502;2022-09-27T09:06:23;99334.00;;;21.72;100.00
2268;BME280;11052;43.338;25.502;2022-09-27T09:09:02;99331.22;;;21.83;100.00
2268;BME280;11052;43.338;25.502;2022-09-27T09:11:39;99311.63;;;21.86;100.00
2268;BME280;11052;43.338;25.502;2022-09-27T09:14:55;99282.81;;;21.65;100.00
2268;BME280;11052;43.338;25.502;2022-09-27T09:17:36;99283.16;;;21.80;100.00
2268;BME280;11052;43.338;25.502;2022-09-27T09:20:20;99284.94;;;21.89;100.00
2268;BME280;11052;43.338;25.502;2022-09-27T09:25:56;99258.50;;;22.18;100.00
2268;BME280;11052;43.338;25.502;2022-09-27T09:28:36;99263.38;;;22.68;100.00
2268;BME280;11052;43.338;25.502;2022-09-27T09:31:14;99266.38;;;22.73;100.00
2268;BME280;11052;43.338;25.502;2022-09-27T09:33:49;99272.22;;;22.76;100.00
2268;BME280;11052;43.338;25.502;2022-09-27T09:36:24;99284.19;;;22.80;100.00
2268;BME280;11052;43.338;25.502;2022-09-27T09:38:55;99297.03;;;22.93;100.00
2268;BME280;11052;43.338;25.502;2022-09-27T09:41:27;99295.91;;;22.96;100.00
2268;BME280;11052;43.338;25.502;2022-09-27T09:43:57;99281.63;;;22.88;100.00
2268;BME280;11052;43.338;25.502;2022-09-27T09:46:34;99275.00;;;23.02;100.00
2268;BME280;11052;43.338;25.502;2022-09-27T09:49:11;99277.09;;;22.99;100.00
2268;BME280;11052;43.338;25.502;2022-09-27T09:51:46;99276.88;;;22.92;100.00
2268;BME280;11052;43.338;25.502;2022-09-27T09:54:20;99277.22;;;22.79;100.00
2268;BME280;11052;43.338;25.502;2022-09-27T09:56:57;99263.03;;;22.80;100.00
2268;BME280;11052;43.338;25.502;2022-09-27T09:59:28;99254.53;;;22.77;100.00
2268;BME280;11052;43.338;25.502;2022-09-27T10:02:16;99256.03;;;22.89;100.00
2268;BME280;11052;43.338;25.502;2022-09-27T10:04:45;99244.78;;;22.87;100.00
2268;BME280;11052;43.338;25.502;2022-09-27T10:07:13;99243.78;;;22.88;100.00
2268;BME280;11052;43.338;25.502;2022-09-27T10:09:42;99240.78;;;23.01;100.00
2268;BME280;11052;43.338;25.502;2022-09-27T10:12:09;99249.16;;;22.69;100.00
2268;BME280;11052;43.338;25.502;2022-09-27T10:14:37;99249.09;;;22.61;100.00
2268;BME280;11052;43.338;25.502;2022-09-27T10:17:10;99241.69;;;22.64;100.00
2268;BME280;11052;43.338;25.502;2022-09-27T10:19:41;99229.00;;;22.68;100.00
2268;BME280;11052;43.338;25.502;2022-09-27T10:22:15;99245.69;;;22.68;100.00
2268;BME280;11052;43.338;25.502;2022-09-27T10:24:56;99232.03;;;22.73;100.00
2268;BME280;11052;43.338;25.502;2022-09-27T10:27:24;99215.22;;;22.74;100.00
2268;BME280;11052;43.338;25.502;2022-09-27T10:29:56;99222.13;;;22.84;100.00
2268;BME280;11052;43.338;25.502;2022-09-27T10:32:27;99236.47;;;23.00;100.00
2268;BME280;11052;43.338;25.502;2022-09-27T10:35:18;99233.53;;;23.20;100.00
2268;BME280;11052;43.338;25.502;2022-09-27T10:37:45;99224.28;;;23.25;100.00
2268;BME280;11052;43.338;25.502;2022-09-27T10:40:25;99218.78;;;23.44;100.00
2268;BME280;11052;43.338;25.502;2022-09-27T10:42:53;99234.78;;;23.34;100.00
2268;BME280;11052;43.338;25.502;2022-09-27T10:45:27;99242.25;;;23.39;100.00
2268;BME280;11052;43.338;25.502;2022-09-27T10:47:56;99239.41;;;23.32;100.00
2268;BME280;11052;43.338;25.502;2022-09-27T10:50:25;99242.56;;;23.36;100.00
2268;BME280;11052;43.338;25.502;2022-09-27T10:53:02;99237.53;;;23.50;100.00
2268;BME280;11052;43.338;25.502;2022-09-27T10:55:32;99242.75;;;23.86;100.00
2268;BME280;11052;43.338;25.502;2022-09-27T10:58:01;99234.41;;;23.99;100.00
2268;BME280;11052;43.338;25.502;2022-09-27T11:00:30;99236.56;;;24.03;100.00
2268;BME280;11052;43.338;25.502;2022-09-27T11:03:01;99240.72;;;24.06;100.00
2268;BME280;11052;43.338;25.502;2022-09-27T11:05:32;99230.19;;;24.22;100.00
2268;BME280;11052;43.338;25.502;2022-09-27T11:08:01;99234.78;;;24.54;100.00
2268;BME280;11052;43.338;25.502;2022-09-27T11:10:31;99227.31;;;24.49;100.00
2268;BME280;11052;43.338;25.502;2022-09-27T11:13:16;99226.31;;;24.42;100.00
2268;BME280;11052;43.338;25.502;2022-09-27T11:15:55;99210.94;;;24.54;100.00
2268;BME280;11052;43.338;25.502;2022-09-27T11:18:34;99204.03;;;24.77;100.00
2268;BME280;11052;43.338;25.502;2022-09-27T11:21:14;99202.38;;;24.84;100.00
2268;BME280;11052;43.338;25.502;2022-09-27T11:24:02;99202.38;;;24.84;100.00
2268;BME280;11052;43.338;25.502;2022-09-27T11:26:42;99190.63;;;24.95;100.00
2268;BME280;11052;43.338;25.502;2022-09-27T11:29:21;99193.81;;;25.07;100.00
2268;BME280;11052;43.338;25.502;2022-09-27T11:32:03;99208.56;;;25.01;100.00
2268;BME280;11052;43.338;25.502;2022-09-27T11:34:55;99224.28;;;24.95;100.00
2268;BME280;11052;43.338;25.502;2022-09-27T11:37:31;99224.50;;;25.09;100.00
2268;BME280;11052;43.338;25.502;2022-09-27T11:40:13;99229.44;;;24.96;100.00
2268;BME280;11052;43.338;25.502;2022-09-27T11:43:06;99229.75;;;25.17;100.00
2268;BME280;11052;43.338;25.502;2022-09-27T11:45:46;99231.25;;;25.20;100.00
2268;BME280;11052;43.338;25.502;2022-09-27T11:48:26;99220.00;;;25.10;100.00
2268;BME280;11052;43.338;25.502;2022-09-27T11:51:07;99219.97;;;24.86;100.00
2268;BME280;11052;43.338;25.502;2022-09-27T11:53:50;99223.28;;;24.96;100.00
2268;BME280;11052;43.338;25.502;2022-09-27T11:56:28;99223.09;;;24.89;100.00
2268;BME280;11052;43.338;25.502;2022-09-27T11:59:11;99214.81;;;24.92;100.00
2268;BME280;11052;43.338;25.502;2022-09-27T12:01:50;99215.81;;;24.91;100.00
2268;BME280;11052;43.338;25.502;2022-09-27T12:04:36;99220.63;;;24.88;100.00
2268;BME280;11052;43.338;25.502;2022-09-27T12:07:16;99223.09;;;24.81;100.00
2268;BME280;11052;43.338;25.502;2022-09-27T12:09:49;99227.22;;;24.75;100.00
2268;BME280;11052;43.338;25.502;2022-09-27T12:12:19;99218.44;;;24.67;100.00
2268;BME280;11052;43.338;25.502;2022-09-27T12:14:50;99213.13;;;24.67;100.00
2268;BME280;11052;43.338;25.502;2022-09-27T12:17:21;99209.78;;;24.57;100.00
2268;BME280;11052;43.338;25.502;2022-09-27T12:19:52;99203.78;;;24.38;100.00
2268;BME280;11052;43.338;25.502;2022-09-27T12:22:25;99210.50;;;24.25;100.00
2268;BME280;11052;43.338;25.502;2022-09-27T12:24:54;99217.31;;;24.27;100.00
2268;BME280;11052;43.338;25.502;2022-09-27T12:27:34;99224.97;;;24.38;100.00
2268;BME280;11052;43.338;25.502;2022-09-27T12:30:04;99231.22;;;24.29;100.00
2268;BME280;11052;43.338;25.502;2022-09-27T12:32:35;99226.38;;;24.16;100.00
2268;BME280;11052;43.338;25.502;2022-09-27T12:35:13;99229.97;;;24.07;100.00
2268;BME280;11052;43.338;25.502;2022-09-27T12:37:47;99218.81;;;23.96;100.00
2268;BME280;11052;43.338;25.502;2022-09-27T12:40:20;99216.34;;;23.94;100.00
2268;BME280;11052;43.338;25.502;2022-09-27T12:42:50;99223.09;;;23.89;100.00
2268;BME280;11052;43.338;25.502;2022-09-27T12:45:25;99218.06;;;23.77;100.00
2268;BME280;11052;43.338;25.502;2022-09-27T12:48:03;99212.59;;;23.79;100.00
2268;BME280;11052;43.338;25.502;2022-09-27T12:50:35;99209.97;;;23.79;100.00
2268;BME280;11052;43.338;25.502;2022-09-27T12:53:11;99204.47;;;23.72;100.00
2268;BME280;11052;43.338;25.502;2022-09-27T12:56:05;99207.78;;;23.74;100.00
2268;BME280;11052;43.338;25.502;2022-09-27T12:59:08;99194.06;;;23.53;100.00
2268;BME280;11052;43.338;25.502;2022-09-27T13:01:51;99185.16;;;23.54;100.00
2268;BME280;11052;43.338;25.502;2022-09-27T13:04:43;99186.25;;;23.69;100.00
2268;BME280;11052;43.338;25.502;2022-09-27T13:07:35;99183.44;;;23.71;100.00
2268;BME280;11052;43.338;25.502;2022-09-27T13:13:16;99166.75;;;23.70;100.00
2268;BME280;11052;43.338;25.502;2022-09-27T13:15:46;99168.72;;;23.68;100.00
2268;BME280;11052;43.338;25.502;2022-09-27T13:18:30;99167.72;;;23.69;100.00
2268;BME280;11052;43.338;25.502;2022-09-27T13:21:00;99169.84;;;23.66;100.00
2268;BME280;11052;43.338;25.502;2022-09-27T13:23:49;99168.72;;;23.68;100.00
2268;BME280;11052;43.338;25.502;2022-09-27T13:26:21;99152.53;;;23.71;100.00